Time;durP1;ratioP1;P1;durP2;ratioP2;P2;SDS_P1;SDS_P2;PMS_P1;PMS_P2;Temp;Humidity;BMP_temperature;BMP_pressure;BME280_temperature;BME280_humidity;BME280_pressure;Samples;Min_cycle;Max_cycle;Signal;HPM_P1;HPM_P2
2021/09/26 00:00:40;;;;;;;28.65;20.67;;;;;;;13.00;100.00;101205.66;2066072;28;20049;-67
2021/09/26 00:01:40;;;;;;;30.37;20.47;;;;;;;13.01;100.00;101203.88;2066080;28;20069;-67
2021/09/26 00:02:41;;;;;;;27.73;20.70;;;;;;;13.02;100.00;101205.59;2066078;28;20049;-66
2021/09/26 00:03:41;;;;;;;26.08;20.27;;;;;;;13.02;100.00;101210.81;2066067;28;20022;-66
2021/09/26 00:04:42;;;;;;;29.47;20.30;;;;;;;13.00;100.00;101203.03;2066031;28;20026;-66
2021/09/26 00:05:42;;;;;;;30.33;19.90;;;;;;;12.98;100.00;101204.88;2066020;28;20034;-67
2021/09/26 00:06:42;;;;;;;30.77;19.80;;;;;;;12.96;100.00;101200.63;2065358;28;20038;-66
2021/09/26 00:07:42;;;;;;;32.70;19.63;;;;;;;12.96;100.00;101205.84;2065352;28;20038;-66
2021/09/26 00:08:43;;;;;;;28.80;20.40;;;;;;;12.96;100.00;101198.84;2065319;28;20138;-67
2021/09/26 00:09:43;;;;;;;26.53;20.17;;;;;;;12.96;100.00;101195.38;2065416;28;20030;-66
2021/09/26 00:10:43;;;;;;;27.80;19.67;;;;;;;12.96;100.00;101200.63;2065949;28;20109;-67
2021/09/26 00:11:43;;;;;;;29.57;20.20;;;;;;;12.97;100.00;101195.31;2065321;28;20032;-66
2021/09/26 00:12:44;;;;;;;24.10;18.60;;;;;;;12.98;100.00;101196.16;2065518;28;20438;-66
2021/09/26 00:13:45;;;;;;;27.17;19.42;;;;;;;12.98;100.00;101197.03;2065994;28;20040;-66
2021/09/26 00:14:45;;;;;;;26.83;19.53;;;;;;;12.96;100.00;101196.25;2066027;28;20399;-66
2021/09/26 00:15:46;;;;;;;29.63;20.42;;;;;;;12.97;100.00;101194.47;2066014;28;20041;-66
2021/09/26 00:16:46;;;;;;;25.87;18.37;;;;;;;12.97;100.00;101192.69;2073398;28;20034;-67
2021/09/26 00:17:48;;;;;;;31.00;19.93;;;;;;;13.00;100.00;101202.16;2073460;28;20053;-67
2021/09/26 00:18:49;;;;;;;31.13;19.75;;;;;;;13.02;100.00;101195.09;2065912;28;20026;-66
2021/09/26 00:19:50;;;;;;;28.30;19.35;;;;;;;13.03;100.00;101194.16;2065259;28;20037;-66
2021/09/26 00:20:50;;;;;;;31.73;19.63;;;;;;;13.02;100.00;101192.47;2065328;28;20150;-66
2021/09/26 00:21:50;;;;;;;28.63;19.03;;;;;;;13.04;100.00;101195.91;2073330;28;20209;-66
2021/09/26 00:22:51;;;;;;;28.90;19.40;;;;;;;13.07;100.00;101193.09;2073424;28;20100;-66
2021/09/26 00:23:53;;;;;;;26.10;19.53;;;;;;;13.08;100.00;101194.81;2065960;28;20321;-66
2021/09/26 00:24:54;;;;;;;26.83;18.65;;;;;;;13.12;100.00;101192.91;2065898;28;20110;-66
2021/09/26 00:25:55;;;;;;;25.77;20.53;;;;;;;13.13;100.00;101184.97;2073343;28;20517;-66
2021/09/26 00:26:55;;;;;;;;;;;;;;;13.16;100.00;101190.97;2073789;28;20022;-65
2021/09/26 00:27:55;;;;;;;28.30;18.42;;;;;;;13.17;100.00;101187.44;2065775;28;19922;-66
2021/09/26 00:28:56;;;;;;;29.43;17.93;;;;;;;13.20;100.00;101189.88;2065864;28;20109;-66
2021/09/26 00:29:56;;;;;;;33.33;19.13;;;;;;;13.21;100.00;101184.59;2073150;28;20121;-66
2021/09/26 00:30:57;;;;;;;27.83;19.20;;;;;;;13.21;100.00;101183.75;2073363;28;20029;-66
2021/09/26 00:31:57;;;;;;;28.88;20.45;;;;;;;13.24;100.00;101194.09;2065552;28;20395;-66
2021/09/26 00:32:57;;;;;;;25.97;19.47;;;;;;;13.25;100.00;101190.53;2073212;28;20026;-67
2021/09/26 00:33:58;;;;;;;27.90;18.13;;;;;;;13.27;100.00;101188.69;2065108;28;20425;-66
2021/09/26 00:34:58;;;;;;;29.50;19.20;;;;;;;13.28;100.00;101190.41;2065203;28;20026;-65
2021/09/26 00:35:58;;;;;;;27.67;18.70;;;;;;;13.29;99.98;101192.09;2065764;28;20388;-66
2021/09/26 00:36:59;;;;;;;29.73;18.98;;;;;;;13.30;100.00;101192.91;2065759;28;20045;-66
2021/09/26 00:37:59;;;;;;;25.17;17.85;;;;;;;13.31;100.00;101195.47;2065791;28;20096;-66
2021/09/26 00:39:00;;;;;;;30.73;19.20;;;;;;;13.33;100.00;101201.50;2065797;28;20061;-66
2021/09/26 00:40:00;;;;;;;27.23;19.13;;;;;;;13.37;100.00;101200.44;2065801;28;20034;-65
2021/09/26 00:41:00;;;;;;;29.47;19.23;;;;;;;13.38;99.98;101199.50;2065758;28;20022;-66
2021/09/26 00:42:01;;;;;;;25.27;19.60;;;;;;;13.35;99.66;101204.88;2065714;28;20064;-66
2021/09/26 00:43:03;;;;;;;24.50;19.00;;;;;;;13.31;99.63;101192.84;2065814;28;20060;-66
2021/09/26 00:44:03;;;;;;;26.35;17.67;;;;;;;13.31;99.67;101198.09;2065131;28;20026;-67
2021/09/26 00:45:04;;;;;;;25.75;18.27;;;;;;;13.33;99.92;101198.88;2065206;28;20499;-66
2021/09/26 00:46:06;;;;;;;27.80;17.90;;;;;;;13.37;99.93;101210.06;2065110;28;20034;-66
2021/09/26 00:47:07;;;;;;;39.40;22.20;;;;;;;13.38;99.70;101199.50;2065083;28;20457;-66
2021/09/26 00:48:07;;;;;;;26.30;17.17;;;;;;;13.37;99.42;101196.94;2065693;28;20038;-65
2021/09/26 00:49:07;;;;;;;25.20;17.30;;;;;;;13.39;99.64;101202.97;2065751;28;20057;-66
2021/09/26 00:50:09;;;;;;;24.53;18.80;;;;;;;13.39;99.68;101198.56;2065734;28;20023;-65
2021/09/26 00:51:12;;;;;;;;;;;;;;;13.39;99.82;101193.31;2066167;28;20031;-65
2021/09/26 00:52:12;;;;;;;25.83;17.08;;;;;;;13.37;99.77;101191.69;2065791;28;19913;-65
2021/09/26 00:53:13;;;;;;;26.47;18.27;;;;;;;13.36;99.24;101193.50;2065677;28;20038;-66
2021/09/26 00:54:13;;;;;;;22.67;18.43;;;;;;;13.37;99.64;101192.56;2065644;28;20056;-67
2021/09/26 00:55:15;;;;;;;26.70;18.33;;;;;;;13.35;99.21;101186.53;2065744;28;20022;-67
2021/09/26 00:56:15;;;;;;;27.10;17.92;;;;;;;13.34;99.42;101195.31;2065679;28;20030;-67
2021/09/26 00:57:15;;;;;;;27.83;20.10;;;;;;;13.33;99.42;101185.78;2065705;28;20364;-66
2021/09/26 00:58:16;;;;;;;27.73;18.43;;;;;;;13.33;99.40;101185.78;2065582;28;20042;-66
2021/09/26 00:59:21;;;;;;;27.77;18.97;;;;;;;13.35;99.41;101185.69;2065690;28;20057;-66
2021/09/26 01:00:21;;;;;;;28.23;18.45;;;;;;;13.35;99.45;101190.94;2065692;28;20149;-66
2021/09/26 01:01:21;;;;;;;26.90;18.40;;;;;;;13.33;99.57;101183.16;2065683;28;20054;-66
2021/09/26 01:02:21;;;;;;;27.23;18.73;;;;;;;13.33;99.58;101182.28;2065560;28;20434;-66
2021/09/26 01:03:22;;;;;;;29.70;17.67;;;;;;;13.32;99.33;101189.31;2065701;28;20030;-65
2021/09/26 01:04:22;;;;;;;35.03;20.30;;;;;;;13.31;99.22;101184.97;2064989;28;20038;-66
2021/09/26 01:05:25;;;;;;;28.10;19.37;;;;;;;13.32;99.40;101186.72;2065080;28;20093;-66
2021/09/26 01:06:55;;;;;;;31.13;19.60;;;;;;;13.32;99.33;101188.47;2065563;28;20053;-66
2021/09/26 01:08:03;;;;;;;28.73;18.15;;;;;;;13.32;99.54;101191.09;2065603;28;20077;-66
2021/09/26 01:09:07;;;;;;;27.58;18.30;;;;;;;13.32;99.65;101186.72;2065721;28;20042;-66
2021/09/26 01:10:16;;;;;;;27.20;17.58;;;;;;;13.31;99.60;101179.75;2065606;28;20057;-66
2021/09/26 01:11:29;;;;;;;29.45;18.60;;;;;;;13.30;99.53;101178.06;2065643;28;20049;-66
2021/09/26 01:13:11;;;;;;;29.75;19.35;;;;;;;13.31;99.38;101186.78;2064999;28;20505;-66
2021/09/26 01:14:22;;;;;;;25.45;17.15;;;;;;;13.29;99.59;101183.38;2057617;28;20039;-66
2021/09/26 01:15:44;;;;;;;28.00;18.85;;;;;;;13.30;99.40;101178.06;2065645;28;20054;-66
2021/09/26 01:17:06;;;;;;;22.65;18.23;;;;;;;13.28;99.54;101179.91;2065464;28;20030;-66
2021/09/26 01:18:22;;;;;;;27.85;18.05;;;;;;;13.28;99.33;101179.91;2065689;28;20399;-67
2021/09/26 01:19:49;;;;;;;25.98;17.52;;;;;;;13.26;99.41;101179.13;2065595;28;20030;-67
2021/09/26 01:21:14;;;;;;;28.02;17.23;;;;;;;13.26;99.13;101176.50;2065629;28;20034;-67
2021/09/26 01:22:28;;;;;;;26.75;18.10;;;;;;;13.25;99.40;101174.81;2065434;28;20026;-67
2021/09/26 01:23:55;;;;;;;27.95;17.92;;;;;;;13.24;99.26;101176.56;2065548;28;20539;-66
2021/09/26 01:25:11;;;;;;;20.30;15.20;;;;;;;13.25;99.39;101177.44;2065613;28;20065;-67
2021/09/26 01:26:36;;;;;;;25.25;17.35;;;;;;;13.26;99.33;101176.50;2065559;28;20039;-67
2021/09/26 01:27:56;;;;;;;25.60;18.35;;;;;;;13.24;99.56;101173.97;2065379;28;20361;-65
2021/09/26 01:29:08;;;;;;;26.23;16.95;;;;;;;13.26;99.35;101181.75;2065537;28;20022;-65
2021/09/26 01:30:40;;;;;;;26.25;18.27;;;;;;;13.25;99.42;101169.56;2065475;28;20033;-65
2021/09/26 01:31:45;;;;;;;23.77;17.40;;;;;;;13.22;98.98;101175.81;2065419;28;20470;-66
2021/09/26 01:33:01;;;;;;;26.48;17.52;;;;;;;13.22;99.03;101172.34;2065449;28;20053;-66
2021/09/26 01:34:13;;;;;;;22.20;17.15;;;;;;;13.20;99.15;101171.53;2065413;28;20506;-66
2021/09/26 01:35:17;;;;;;;24.27;16.60;;;;;;;13.19;99.30;101168.09;2064924;28;20113;-66
2021/09/26 01:36:30;;;;;;;26.63;19.27;;;;;;;13.22;99.24;101164.47;2064995;28;20030;-65
2021/09/26 01:37:51;;;;;;;26.35;17.75;;;;;;;13.22;99.51;101167.09;2065508;28;20028;-67
2021/09/26 01:39:00;;;;;;;26.45;17.90;;;;;;;13.23;99.27;101166.16;2065566;28;20169;-67
2021/09/26 01:40:12;;;;;;;23.38;17.17;;;;;;;13.20;99.10;101163.69;2064837;28;20039;-67
2021/09/26 01:41:27;;;;;;;25.65;17.90;;;;;;;13.18;99.26;101165.53;2064961;28;20043;-66
2021/09/26 01:42:34;;;;;;;24.67;17.25;;;;;;;13.17;99.41;101166.47;2064816;28;20487;-66
2021/09/26 01:43:38;;;;;;;26.52;17.02;;;;;;;13.18;99.09;101173.41;2065202;28;20026;-67
2021/09/26 01:45:06;;;;;;;25.80;17.90;;;;;;;13.18;99.64;101165.53;2067075;28;20387;-66
2021/09/26 01:46:10;;;;;;;22.90;16.85;;;;;;;13.19;99.64;101165.47;2061971;28;20038;-66
2021/09/26 01:47:16;;;;;;;27.63;17.45;;;;;;;13.21;99.28;101157.53;2066454;28;20030;-65
2021/09/26 01:48:27;;;;;;;24.45;17.98;;;;;;;13.21;99.59;101161.00;2067067;28;20085;-65
2021/09/26 01:49:57;;;;;;;27.98;16.85;;;;;;;13.24;99.44;101162.66;2067032;28;20064;-65
2021/09/26 01:50:59;;;;;;;25.67;17.08;;;;;;;13.23;99.42;101161.78;2066258;28;20114;-65
2021/09/26 01:52:01;;;;;;;24.60;17.75;;;;;;;13.23;99.15;101160.94;2066332;28;20624;-66
2021/09/26 01:53:01;;;;;;;24.88;17.75;;;;;;;13.23;99.54;101153.06;2066495;28;20040;-65
2021/09/26 01:54:04;;;;;;;27.05;18.00;;;;;;;13.23;99.66;101150.44;2067119;28;20031;-66
2021/09/26 01:55:08;;;;;;;27.77;17.80;;;;;;;13.25;99.28;101146.00;2066976;28;20035;-65
2021/09/26 01:56:12;;;;;;;29.08;18.48;;;;;;;13.27;99.26;101144.13;2067109;28;20068;-66
2021/09/26 01:57:12;;;;;;;24.85;18.05;;;;;;;13.27;99.45;101146.75;2066367;28;20499;-66
2021/09/26 01:58:15;;;;;;;25.43;15.87;;;;;;;13.29;99.50;101150.16;2066143;28;20057;-65
2021/09/26 01:59:16;;;;;;;23.05;17.65;;;;;;;13.29;99.16;101147.53;2066287;28;20475;-67
2021/09/26 02:00:16;;;;;;;25.23;17.38;;;;;;;13.31;99.28;101152.69;2066380;28;20105;-66
2021/09/26 02:01:17;;;;;;;26.93;18.53;;;;;;;13.30;99.22;101146.59;2067040;28;20026;-66
2021/09/26 02:02:18;;;;;;;24.92;16.08;;;;;;;13.31;99.29;101148.28;2067049;28;20038;-66
2021/09/26 02:03:22;;;;;;;23.90;17.38;;;;;;;13.33;99.39;101151.69;2066981;28;20065;-66
2021/09/26 02:04:24;;;;;;;27.45;18.00;;;;;;;13.33;99.39;101150.84;2066273;28;20034;-66
2021/09/26 02:05:25;;;;;;;27.23;17.63;;;;;;;13.33;99.11;101145.59;2066398;28;20019;-67
2021/09/26 02:06:25;;;;;;;27.10;19.33;;;;;;;13.33;99.16;101151.69;2066879;28;20426;-65
2021/09/26 02:07:28;;;;;;;25.80;18.80;;;;;;;13.33;98.92;101148.22;2066812;28;20045;-66
2021/09/26 02:08:29;;;;;;;25.33;18.08;;;;;;;13.32;99.09;101150.00;2066917;28;20542;-66
2021/09/26 02:09:30;;;;;;;28.23;18.05;;;;;;;13.33;98.74;101148.22;2066948;28;20033;-66
2021/09/26 02:10:30;;;;;;;25.77;18.10;;;;;;;13.32;99.06;101142.16;2067078;28;20032;-66
2021/09/26 02:11:31;;;;;;;27.67;18.30;;;;;;;13.32;99.16;101155.25;2066231;28;20085;-66
2021/09/26 02:12:32;;;;;;;26.75;18.40;;;;;;;13.30;98.97;101151.84;2066343;28;20022;-66
2021/09/26 02:13:33;;;;;;;27.42;19.13;;;;;;;13.31;99.27;101145.66;2066945;28;20383;-66
2021/09/26 02:14:34;;;;;;;27.38;17.60;;;;;;;13.31;98.80;101148.28;2066902;28;20026;-66
2021/09/26 02:15:35;;;;;;;23.88;17.90;;;;;;;13.32;99.06;101142.16;2074341;28;20022;-67
2021/09/26 02:16:35;;;;;;;;;;;;;;;13.34;98.93;101139.44;2066664;28;20028;-66
2021/09/26 02:17:37;;;;;;;23.00;16.13;;;;;;;13.33;98.72;101138.59;2066292;28;19909;-66
2021/09/26 02:18:39;;;;;;;22.25;16.17;;;;;;;13.35;98.81;101143.75;2066852;28;20444;-67
2021/09/26 02:19:41;;;;;;;26.35;17.98;;;;;;;13.35;99.09;101147.22;2066746;28;20034;-65
2021/09/26 02:20:42;;;;;;;24.10;16.63;;;;;;;13.36;98.58;101143.69;2066818;28;20023;-66
2021/09/26 02:21:44;;;;;;;23.58;17.42;;;;;;;13.35;98.84;101139.34;2074297;28;20108;-66
2021/09/26 02:22:47;;;;;;;26.75;18.15;;;;;;;13.35;98.60;101144.59;2066128;28;20061;-66
2021/09/26 02:23:49;;;;;;;26.95;18.17;;;;;;;13.33;98.81;101145.59;2058351;28;20117;-65
2021/09/26 02:24:50;;;;;;;22.10;18.15;;;;;;;13.36;98.77;101141.06;2066296;28;20034;-66
2021/09/26 02:25:51;;;;;;;;;;;;;;;13.40;98.80;101144.38;2066548;28;20053;-65
2021/09/26 02:26:52;;;;;;;23.45;15.95;;;;;;;13.39;98.87;101137.44;2066282;28;19942;-66
2021/09/26 02:27:52;;;;;;;24.30;17.93;;;;;;;13.38;98.41;101144.44;2066754;28;20033;-66
2021/09/26 02:28:52;;;;;;;34.60;18.90;;;;;;;13.39;98.89;101146.13;2066744;28;20105;-66
2021/09/26 02:29:53;;;;;;;23.37;17.83;;;;;;;13.39;98.72;101146.13;2066789;28;20282;-66
2021/09/26 02:30:53;;;;;;;24.02;18.20;;;;;;;13.42;98.60;101139.91;2066700;28;20305;-65
2021/09/26 02:31:54;;;;;;;23.27;16.60;;;;;;;13.45;98.38;101141.53;2066669;28;20486;-67
2021/09/26 02:32:55;;;;;;;26.50;18.75;;;;;;;13.49;98.18;101145.72;2066093;28;20030;-66
2021/09/26 02:33:55;;;;;;;24.53;16.27;;;;;;;13.50;98.60;101142.16;2066184;28;20483;-67
2021/09/26 02:34:55;;;;;;;26.57;18.20;;;;;;;13.50;98.52;101147.41;2066720;28;20472;-66
2021/09/26 02:35:56;;;;;;;26.93;19.03;;;;;;;13.47;98.40;101147.53;2066840;28;20030;-66
2021/09/26 02:36:56;;;;;;;24.17;18.50;;;;;;;13.48;98.64;101157.13;2066772;28;20023;-67
2021/09/26 02:37:56;;;;;;;30.30;18.00;;;;;;;13.47;98.45;101152.78;2066695;28;20035;-66
2021/09/26 02:38:57;;;;;;;27.30;18.50;;;;;;;13.49;98.51;101156.22;2066770;28;20026;-66
2021/09/26 02:39:58;;;;;;;29.47;19.70;;;;;;;13.51;98.50;101154.34;2066683;28;20085;-66
2021/09/26 02:41:34;;;;;;;25.25;16.50;;;;;;;13.55;98.26;101155.88;2066634;28;20022;-66
2021/09/26 02:42:44;;;;;;;27.00;18.70;;;;;;;13.57;98.24;101159.31;2049553;28;20130;-66
2021/09/26 02:43:52;;;;;;;24.35;17.02;;;;;;;13.58;98.25;101154.91;2064219;28;20442;-66
2021/09/26 02:45:03;;;;;;;23.50;17.17;;;;;;;13.58;98.32;101155.75;2066574;28;20157;-65
2021/09/26 02:46:15;;;;;;;24.77;18.23;;;;;;;13.59;98.04;101151.34;2066666;28;20389;-67
2021/09/26 02:47:19;;;;;;;25.70;17.35;;;;;;;13.60;98.25;101155.66;2066572;28;20116;-66
2021/09/26 02:48:25;;;;;;;25.83;16.58;;;;;;;13.62;98.37;101154.66;2066616;28;20057;-66
2021/09/26 02:49:26;;;;;;;28.65;17.05;;;;;;;13.64;98.20;101157.22;2066602;28;20018;-66
2021/09/26 02:50:27;;;;;;;26.25;17.70;;;;;;;13.63;98.27;101161.63;2066553;28;20068;-66
2021/09/26 02:51:27;;;;;;;24.88;18.10;;;;;;;13.64;98.20;101170.31;2066707;28;20093;-66
2021/09/26 02:52:28;;;;;;;30.35;18.30;;;;;;;13.62;98.24;101161.69;2066551;28;20057;-66
2021/09/26 02:53:30;;;;;;;25.08;17.20;;;;;;;13.64;98.08;101163.31;2066546;28;20026;-65
2021/09/26 02:54:35;;;;;;;26.88;17.75;;;;;;;13.68;98.19;101155.31;2065820;28;20030;-66
2021/09/26 02:55:37;;;;;;;25.85;17.67;;;;;;;13.67;97.95;101159.69;2058495;28;20019;-66
2021/09/26 02:56:38;;;;;;;25.08;16.95;;;;;;;13.65;98.24;101159.75;2065961;28;20057;-66
2021/09/26 02:57:39;;;;;;;29.83;17.70;;;;;;;13.68;98.35;101165.78;2073898;28;20243;-67
2021/09/26 02:58:40;;;;;;;26.73;17.73;;;;;;;13.70;98.07;101159.53;2074012;28;20549;-66
2021/09/26 02:59:40;;;;;;;25.30;17.83;;;;;;;13.72;98.13;101162.09;2074047;28;20025;-66
2021/09/26 03:00:44;;;;;;;21.77;15.53;;;;;;;13.72;98.06;101155.03;2065887;28;20018;-65
2021/09/26 03:01:52;;;;;;;23.55;17.50;;;;;;;13.74;98.42;101160.22;2065904;28;20666;-65
2021/09/26 03:02:52;;;;;;;25.60;17.23;;;;;;;13.73;98.20;101155.91;2066526;28;20026;-66
2021/09/26 03:04:07;;;;;;;24.57;18.07;;;;;;;13.73;98.14;101161.16;2066538;28;20591;-66
2021/09/26 03:05:08;;;;;;;21.98;15.68;;;;;;;13.73;98.18;101158.53;2066490;28;20033;-66
2021/09/26 03:06:09;;;;;;;24.20;17.05;;;;;;;13.74;98.29;101157.59;2066474;28;20053;-66
2021/09/26 03:07:13;;;;;;;21.37;15.63;;;;;;;13.77;98.41;101157.44;2066446;28;20037;-67
2021/09/26 03:08:15;;;;;;;25.05;17.13;;;;;;;13.77;98.09;101157.44;2066479;28;20030;-66
2021/09/26 03:09:15;;;;;;;24.75;18.05;;;;;;;13.76;98.10;101151.34;2066477;28;20026;-67
2021/09/26 03:10:15;;;;;;;23.73;17.75;;;;;;;13.78;98.09;101151.25;2066490;28;20034;-65
2021/09/26 03:11:16;;;;;;;23.33;17.53;;;;;;;13.79;98.20;101150.31;2066521;28;20042;-66
2021/09/26 03:12:19;;;;;;;27.70;16.83;;;;;;;13.81;98.20;101151.13;2066471;28;20384;-67
2021/09/26 03:13:20;;;;;;;24.58;18.48;;;;;;;13.81;98.19;101156.34;2066529;28;20406;-66
2021/09/26 03:14:20;;;;;;;27.38;16.90;;;;;;;13.81;97.79;101150.25;2066416;28;20037;-67
2021/09/26 03:15:20;;;;;;;25.90;16.57;;;;;;;13.80;98.04;101149.41;2065773;28;20023;-67
2021/09/26 03:16:20;;;;;;;26.30;17.13;;;;;;;13.81;97.91;101155.50;2065889;28;20034;-66
2021/09/26 03:17:21;;;;;;;27.00;17.77;;;;;;;13.81;97.92;101148.50;2066529;28;20057;-67
2021/09/26 03:18:21;;;;;;;25.93;17.90;;;;;;;13.80;97.79;101153.81;2066474;28;20057;-66
2021/09/26 03:19:22;;;;;;;26.15;17.35;;;;;;;13.80;97.95;101148.56;2065768;28;20018;-66
2021/09/26 03:20:22;;;;;;;26.13;17.37;;;;;;;13.80;97.64;101154.66;2065758;28;20078;-66
2021/09/26 03:21:23;;;;;;;25.48;17.75;;;;;;;13.81;97.84;101151.13;2066428;28;20054;-66
2021/09/26 03:22:23;;;;;;;26.20;18.35;;;;;;;13.84;97.73;101150.97;2066416;28;20025;-67
2021/09/26 03:23:24;;;;;;;26.50;17.97;;;;;;;13.86;97.68;101156.97;2066472;28;20026;-66
2021/09/26 03:24:24;;;;;;;27.25;17.30;;;;;;;13.89;97.74;101150.72;2066358;28;20034;-66
2021/09/26 03:25:24;;;;;;;28.33;16.80;;;;;;;13.89;97.65;101148.94;2073712;28;20057;-66
2021/09/26 03:26:25;;;;;;;26.33;18.13;;;;;;;13.92;97.39;101152.34;2073881;28;20022;-65
2021/09/26 03:27:25;;;;;;;29.97;18.27;;;;;;;13.93;97.29;101146.16;2066252;28;20494;-66
2021/09/26 03:28:25;;;;;;;24.57;16.43;;;;;;;13.94;97.48;101156.59;2065699;28;20100;-66
2021/09/26 03:29:26;;;;;;;28.80;17.30;;;;;;;13.95;97.42;101146.91;2065839;28;20101;-67
2021/09/26 03:30:26;;;;;;;27.45;17.83;;;;;;;13.97;97.99;101147.69;2066343;28;20037;-66
2021/09/26 03:31:26;;;;;;;26.13;16.73;;;;;;;13.99;97.13;101148.47;2066372;28;20030;-66
2021/09/26 03:32:27;;;;;;;25.40;17.60;;;;;;;14.01;97.13;101151.84;2073728;28;20108;-65
2021/09/26 03:33:27;;;;;;;23.07;16.93;;;;;;;14.01;97.29;101146.59;2065674;28;20033;-66
2021/09/26 03:34:28;;;;;;;26.20;16.10;;;;;;;14.03;97.22;101150.00;2065731;28;20089;-66
2021/09/26 03:35:29;;;;;;;25.55;17.75;;;;;;;14.03;97.17;101155.25;2066298;28;20414;-66
2021/09/26 03:36:29;;;;;;;23.02;18.05;;;;;;;14.02;97.06;101150.91;2066264;28;20022;-66
2021/09/26 03:37:30;;;;;;;24.93;16.67;;;;;;;14.03;97.13;101155.25;2065577;28;20050;-66
2021/09/26 03:38:31;;;;;;;28.65;16.45;;;;;;;14.02;97.31;101154.41;2065660;28;20026;-64
2021/09/26 03:39:32;;;;;;;27.25;17.75;;;;;;;14.02;96.94;101159.66;2066240;28;20081;-66
2021/09/26 03:40:32;;;;;;;23.67;16.15;;;;;;;14.02;97.21;101158.78;2066221;28;20522;-66
2021/09/26 03:41:33;;;;;;;24.95;16.55;;;;;;;14.04;97.00;101151.69;2066211;28;20026;-65
2021/09/26 03:42:33;;;;;;;24.13;16.67;;;;;;;14.05;97.10;101150.75;2066352;28;20072;-66
2021/09/26 03:43:34;;;;;;;26.70;17.50;;;;;;;14.02;97.17;101149.16;2066248;28;20076;-66
2021/09/26 03:44:34;;;;;;;23.20;16.85;;;;;;;14.02;97.68;101146.53;2065533;28;20030;-66
2021/09/26 03:45:35;;;;;;;22.67;15.90;;;;;;;14.03;97.44;101137.72;2065646;28;20022;-66
2021/09/26 03:46:36;;;;;;;25.92;17.38;;;;;;;14.05;97.53;101140.28;2066333;28;20319;-66
2021/09/26 03:47:36;;;;;;;24.50;15.53;;;;;;;14.07;97.33;101134.94;2065503;28;20519;-66
2021/09/26 03:48:37;;;;;;;27.67;17.20;;;;;;;14.10;97.43;101142.66;2065649;28;20798;-67
2021/09/26 03:49:37;;;;;;;31.55;17.77;;;;;;;14.10;97.34;101140.88;2066226;28;20022;-65
2021/09/26 03:50:37;;;;;;;26.37;17.50;;;;;;;14.09;97.50;101138.34;2065552;28;20022;-65
2021/09/26 03:51:38;;;;;;;26.33;16.57;;;;;;;14.08;97.64;101132.25;2065705;28;20529;-65
2021/09/26 03:52:39;;;;;;;31.23;17.50;;;;;;;14.06;97.49;101133.25;2066249;28;20034;-65
2021/09/26 03:53:40;;;;;;;20.92;16.13;;;;;;;14.06;97.65;101134.09;2066181;28;20092;-65
2021/09/26 03:54:40;;;;;;;23.65;16.00;;;;;;;14.09;97.83;101139.19;2065533;28;20074;-65
2021/09/26 03:55:41;;;;;;;23.30;17.17;;;;;;;14.10;97.83;101132.16;2065753;28;20109;-65
2021/09/26 03:56:43;;;;;;;26.92;17.10;;;;;;;14.11;97.67;101134.72;2065627;28;20026;-65
2021/09/26 03:57:44;;;;;;;29.58;16.52;;;;;;;14.15;98.01;101130.13;2065449;28;20102;-65
2021/09/26 03:58:45;;;;;;;24.95;17.25;;;;;;;14.16;97.93;101135.31;2066166;28;20034;-65
2021/09/26 03:59:46;;;;;;;24.85;17.17;;;;;;;14.18;97.46;101139.63;2066085;28;20030;-67
2021/09/26 04:00:46;;;;;;;22.77;15.43;;;;;;;14.18;97.90;101142.25;2066247;28;20117;-67
2021/09/26 04:01:47;;;;;;;23.30;15.17;;;;;;;14.20;97.79;101140.41;2065454;28;20026;-67
2021/09/26 04:02:48;;;;;;;28.08;17.27;;;;;;;14.21;97.88;101142.94;2065402;28;20018;-65
2021/09/26 04:03:48;;;;;;;28.60;17.87;;;;;;;14.23;97.54;101146.31;2065489;28;20026;-65
2021/09/26 04:04:48;;;;;;;27.90;17.40;;;;;;;14.25;97.57;101148.88;2066101;28;20029;-66
2021/09/26 04:05:48;;;;;;;24.37;15.13;;;;;;;14.25;97.65;101141.84;2065365;28;20019;-65
2021/09/26 04:06:49;;;;;;;22.60;16.90;;;;;;;14.27;97.48;101144.41;2064974;28;20482;-64
2021/09/26 04:07:49;;;;;;;28.20;15.87;;;;;;;14.28;97.62;101138.22;2065992;28;20038;-64
2021/09/26 04:08:49;;;;;;;25.77;17.83;;;;;;;14.29;97.65;101145.16;2066059;28;20108;-66
2021/09/26 04:09:49;;;;;;;26.17;18.33;;;;;;;14.28;97.85;101136.44;2066086;28;20057;-65
2021/09/26 04:10:50;;;;;;;21.60;16.93;;;;;;;14.27;97.69;101136.53;2066005;28;20041;-64
2021/09/26 04:11:50;;;;;;;26.20;18.93;;;;;;;14.27;97.89;101136.53;2066069;28;20030;-64
2021/09/26 04:12:50;;;;;;;27.50;17.90;;;;;;;14.26;97.96;101137.44;2066135;28;20057;-63
2021/09/26 04:13:51;;;;;;;25.27;16.33;;;;;;;14.25;97.97;101138.38;2073449;28;20056;-65
2021/09/26 04:14:51;;;;;;;27.43;17.93;;;;;;;14.26;98.15;101142.69;2065350;28;20037;-64
2021/09/26 04:15:51;;;;;;;25.33;17.10;;;;;;;14.26;98.30;101146.16;2065428;28;20487;-65
2021/09/26 04:16:52;;;;;;;27.77;17.03;;;;;;;14.26;98.15;101137.44;2065965;28;20027;-64
2021/09/26 04:17:52;;;;;;;26.00;18.58;;;;;;;14.26;98.22;101134.81;2066026;28;20029;-64
2021/09/26 04:18:52;;;;;;;27.30;18.47;;;;;;;14.25;98.43;101133.13;2065947;28;20483;-64
2021/09/26 04:19:53;;;;;;;20.47;17.33;;;;;;;14.25;98.56;101141.00;2073350;28;20058;-64
2021/09/26 04:20:53;;;;;;;25.93;16.43;;;;;;;14.24;98.42;101134.88;2073472;28;20034;-64
2021/09/26 04:21:53;;;;;;;23.77;16.07;;;;;;;14.24;98.79;101136.69;2065809;28;20088;-64
2021/09/26 04:22:53;;;;;;;25.80;17.50;;;;;;;14.25;98.57;101133.13;2065901;28;20030;-64
2021/09/26 04:23:54;;;;;;;30.37;17.90;;;;;;;14.25;98.45;101133.13;2065902;28;20026;-64
2021/09/26 04:24:54;;;;;;;26.33;16.85;;;;;;;14.24;98.42;101137.50;2065969;28;20468;-64
2021/09/26 04:25:54;;;;;;;23.00;15.93;;;;;;;14.24;98.52;101140.13;2065902;28;20053;-64
2021/09/26 04:26:55;;;;;;;21.27;14.90;;;;;;;14.25;98.61;101139.22;2065976;28;20053;-65
2021/09/26 04:27:58;;;;;;;27.55;19.05;;;;;;;14.27;98.83;101133.91;2065858;28;20472;-65
2021/09/26 04:28:58;;;;;;;27.27;17.73;;;;;;;14.26;99.04;101140.91;2065889;28;20026;-64
2021/09/26 04:29:58;;;;;;;27.00;18.07;;;;;;;14.27;98.97;101139.16;2065791;28;20436;-64
2021/09/26 04:30:58;;;;;;;29.83;17.37;;;;;;;14.29;98.98;101135.50;2065875;28;20034;-63
2021/09/26 04:31:59;;;;;;;25.07;16.50;;;;;;;14.29;98.57;101139.91;2065240;28;20065;-64
2021/09/26 04:33:00;;;;;;;26.23;17.30;;;;;;;14.31;98.96;101142.44;2065285;28;20030;-64
2021/09/26 04:34:00;;;;;;;26.10;17.75;;;;;;;14.32;99.31;101133.63;2065102;28;20442;-64
2021/09/26 04:35:02;;;;;;;27.77;16.10;;;;;;;14.34;99.16;101137.88;2065308;28;20578;-64
2021/09/26 04:36:03;;;;;;;26.48;17.95;;;;;;;14.35;99.14;101136.97;2073211;28;20040;-65
2021/09/26 04:37:03;;;;;;;32.85;17.52;;;;;;;14.35;99.29;101134.31;2073386;28;20479;-65
2021/09/26 04:38:04;;;;;;;31.98;17.73;;;;;;;14.35;98.91;101136.97;2065813;28;20027;-65
2021/09/26 04:39:05;;;;;;;27.97;17.30;;;;;;;14.38;99.38;101138.56;2065834;28;20026;-65
2021/09/26 04:40:06;;;;;;;25.75;16.85;;;;;;;14.38;99.28;101134.16;2065817;28;20022;-65
2021/09/26 04:41:07;;;;;;;25.65;16.92;;;;;;;14.39;99.17;101130.59;2065948;28;20033;-65
2021/09/26 04:42:07;;;;;;;26.67;17.37;;;;;;;14.40;99.01;101132.28;2065940;28;20065;-65
2021/09/26 04:43:08;;;;;;;26.13;16.63;;;;;;;14.40;99.46;101137.53;2065898;28;20384;-65
2021/09/26 04:44:08;;;;;;;23.85;15.70;;;;;;;14.38;99.05;101133.31;2065830;28;20034;-65
2021/09/26 04:45:10;;;;;;;27.13;17.40;;;;;;;14.36;99.10;101133.41;2065742;28;20042;-64
2021/09/26 04:46:10;;;;;;;32.10;18.05;;;;;;;14.33;99.18;101133.56;2065708;28;20057;-64
2021/09/26 04:47:10;;;;;;;28.70;16.43;;;;;;;14.33;99.50;101130.94;2065690;28;20062;-65